createdAt,value
2019-01-16T00:00:07.520Z,90.31
2019-01-16T00:01:07.506Z,90.20
2019-01-16T00:02:07.515Z,90.72
2019-01-16T00:03:07.480Z,90.93
2019-01-16T00:04:07.479Z,91.13
2019-01-16T00:05:07.484Z,90.10
2019-01-16T00:06:07.458Z,90.00
2019-01-16T00:07:07.496Z,90.31
2019-01-16T00:08:07.424Z,90.20
2019-01-16T00:09:07.423Z,89.89
2019-01-16T00:10:07.416Z,90.20
2019-01-16T00:11:07.427Z,90.62
2019-01-16T00:12:07.395Z,89.79
2019-01-16T00:13:07.401Z,90.52
2019-01-16T00:14:07.353Z,90.93
2019-01-16T00:15:07.374Z,90.20
2019-01-16T00:16:07.360Z,90.77
2019-01-16T00:17:07.330Z,90.31
2019-01-16T00:18:07.334Z,90.10
2019-01-16T00:19:07.302Z,90.31
2019-01-16T00:20:07.310Z,89.89
2019-01-16T00:21:07.285Z,90.52
2019-01-16T00:22:07.269Z,90.62
2019-01-16T00:23:07.269Z,90.10
2019-01-16T00:24:07.273Z,90.62
2019-01-16T00:25:07.284Z,89.79
2019-01-16T00:26:07.231Z,90.00
2019-01-16T00:27:07.320Z,89.59
2019-01-16T00:28:07.408Z,89.11
2019-01-16T00:29:07.300Z,88.90
2019-01-16T00:30:07.307Z,88.96
2019-01-16T00:31:07.191Z,89.22
2019-01-16T00:32:07.156Z,89.11
2019-01-16T00:33:07.241Z,88.70
2019-01-16T00:34:07.147Z,88.80
2019-01-16T00:35:07.135Z,88.90
2019-01-16T00:36:07.238Z,88.59
2019-01-16T00:37:07.098Z,88.28
2019-01-16T00:38:07.091Z,88.70
2019-01-16T00:39:07.105Z,88.28
2019-01-16T00:40:07.097Z,88.07
2019-01-16T00:41:07.071Z,88.49
2019-01-16T00:42:07.052Z,88.28
2019-01-16T00:43:07.033Z,88.45
2019-01-16T00:44:07.058Z,88.59
2019-01-16T00:45:07.039Z,88.07
2019-01-16T00:46:07.035Z,88.39
2019-01-16T00:47:07.039Z,87.25
2019-01-16T00:48:06.979Z,87.97
2019-01-16T00:49:06.968Z,87.21
2019-01-16T00:50:06.961Z,87.15
2019-01-16T00:51:06.973Z,87.15
2019-01-16T00:52:06.944Z,87.31
2019-01-16T00:53:06.983Z,87.04
2019-01-16T00:54:06.919Z,87.25
2019-01-16T00:55:06.928Z,87.56
2019-01-16T00:56:06.891Z,87.25
2019-01-16T00:57:06.993Z,87.35
2019-01-16T00:58:06.881Z,86.73
2019-01-16T00:59:06.999Z,87.15
2019-01-16T01:00:06.884Z,86.32
2019-01-16T01:01:06.838Z,86.11
2019-01-16T01:02:06.852Z,86.32
2019-01-16T01:03:06.822Z,86.21
2019-01-16T01:04:06.873Z,86.01
2019-01-16T01:05:06.790Z,85.91
2019-01-16T01:06:06.782Z,86.11
2019-01-16T01:07:06.787Z,86.52
2019-01-16T01:08:06.770Z,87.15
2019-01-16T01:09:07.353Z,86.77
2019-01-16T01:10:06.759Z,87.29
2019-01-16T01:11:06.733Z,86.67
2019-01-16T01:12:06.723Z,87.39
2019-01-16T01:13:06.748Z,87.18
2019-01-16T01:14:06.706Z,87.08
2019-01-16T01:15:06.714Z,87.39
2019-01-16T01:16:06.703Z,86.77
2019-01-16T01:17:06.672Z,87.18
2019-01-16T01:18:06.671Z,86.88
2019-01-16T01:19:06.637Z,87.18
2019-01-16T01:20:06.757Z,86.98
2019-01-16T01:21:06.621Z,86.88
2019-01-16T01:22:06.603Z,87.08
2019-01-16T01:23:06.595Z,86.88
2019-01-16T01:24:06.581Z,87.39
2019-01-16T01:25:06.608Z,87.08
2019-01-16T01:26:06.575Z,87.08
2019-01-16T01:27:06.558Z,87.08
2019-01-16T01:28:06.541Z,86.67
2019-01-16T01:29:06.526Z,87.08
2019-01-16T01:30:06.550Z,87.08
2019-01-16T01:31:06.504Z,87.18
2019-01-16T01:32:06.497Z,86.77
2019-01-16T01:33:06.499Z,86.46
2019-01-16T01:34:06.471Z,86.88
2019-01-16T01:35:06.514Z,86.88
2019-01-16T01:36:06.465Z,86.67
2019-01-16T01:37:06.442Z,86.25
2019-01-16T01:38:06.430Z,86.46
2019-01-16T01:39:06.448Z,85.74
2019-01-16T01:40:06.438Z,86.25
2019-01-16T01:41:06.423Z,86.36
2019-01-16T01:42:06.388Z,86.05
2019-01-16T01:43:06.374Z,85.74
2019-01-16T01:44:06.416Z,85.74
2019-01-16T01:45:06.370Z,85.42
2019-01-16T01:46:06.348Z,85.42
2019-01-16T01:47:06.327Z,85.74
2019-01-16T01:48:06.320Z,85.74
2019-01-16T01:49:06.345Z,85.78
2019-01-16T01:50:06.296Z,86.29
2019-01-16T01:51:06.286Z,86.50
2019-01-16T01:52:06.277Z,85.84
2019-01-16T01:53:06.320Z,86.36
2019-01-16T01:54:06.252Z,86.15
2019-01-16T01:55:06.239Z,86.05
2019-01-16T01:56:06.260Z,85.94
2019-01-16T01:57:06.242Z,85.84
2019-01-16T01:58:06.259Z,85.70
2019-01-16T01:59:06.197Z,85.74
2019-01-16T02:00:06.190Z,85.84
2019-01-16T02:01:06.207Z,85.74
2019-01-16T02:02:06.181Z,85.08
2019-01-16T02:03:06.199Z,85.28
2019-01-16T02:04:06.142Z,84.77
2019-01-16T02:05:06.129Z,84.87
2019-01-16T02:06:06.139Z,84.77
2019-01-16T02:07:06.113Z,84.56
2019-01-16T02:08:06.153Z,85.08
2019-01-16T02:09:06.125Z,84.21
2019-01-16T02:10:06.076Z,84.56
2019-01-16T02:11:06.068Z,84.56
2019-01-16T02:12:06.051Z,84.15
2019-01-16T02:13:06.083Z,84.25
2019-01-16T02:14:06.055Z,83.84
2019-01-16T02:15:06.068Z,83.39
2019-01-16T02:16:06.007Z,83.28
2019-01-16T02:17:05.997Z,84.56
2019-01-16T02:18:05.991Z,83.63
2019-01-16T02:19:05.998Z,83.63
2019-01-16T02:20:06.016Z,84.36
2019-01-16T02:21:06.006Z,84.05
2019-01-16T02:22:05.943Z,83.53
2019-01-16T02:23:05.931Z,83.73
2019-01-16T02:24:05.957Z,83.90
2019-01-16T02:25:05.920Z,84.77
2019-01-16T02:26:05.923Z,83.73
2019-01-16T02:27:05.912Z,83.18
2019-01-16T02:28:05.882Z,83.39
2019-01-16T02:29:05.911Z,83.07
2019-01-16T02:30:05.897Z,83.39
2019-01-16T02:31:05.851Z,82.97
2019-01-16T02:32:05.859Z,83.39
2019-01-16T02:33:05.868Z,83.59
2019-01-16T02:34:05.815Z,82.87
2019-01-16T02:35:05.816Z,82.25
2019-01-16T02:36:05.818Z,82.45
2019-01-16T02:37:05.787Z,82.25
2019-01-16T02:38:05.779Z,81.90
2019-01-16T02:39:05.769Z,82.10
2019-01-16T02:40:05.747Z,82.35
2019-01-16T02:41:05.735Z,82.04
2019-01-16T02:42:05.748Z,82.10
2019-01-16T02:43:05.736Z,82.10
2019-01-16T02:44:05.738Z,82.21
2019-01-16T02:45:05.685Z,82.00
2019-01-16T02:46:05.706Z,82.00
2019-01-16T02:47:05.665Z,82.25
2019-01-16T02:48:05.673Z,82.45
2019-01-16T02:49:05.664Z,82.97
2019-01-16T02:50:05.669Z,82.25
2019-01-16T02:51:05.637Z,83.18
2019-01-16T02:52:05.641Z,83.04
2019-01-16T02:53:05.602Z,83.28
2019-01-16T02:54:05.596Z,83.07
2019-01-16T02:55:05.584Z,82.25
2019-01-16T02:56:05.572Z,82.42
2019-01-16T02:57:05.579Z,82.76
2019-01-16T02:58:05.543Z,82.15
2019-01-16T02:59:05.563Z,82.00
2019-01-16T03:00:05.571Z,82.21
2019-01-16T03:01:05.517Z,82.00
2019-01-16T03:02:05.506Z,82.31
2019-01-16T03:03:05.489Z,83.14
2019-01-16T03:04:05.489Z,82.42
2019-01-16T03:05:05.492Z,82.42
2019-01-16T03:06:05.485Z,82.87
2019-01-16T03:07:05.495Z,83.45
2019-01-16T03:08:05.434Z,83.39
2019-01-16T03:09:05.426Z,83.39
2019-01-16T03:10:05.432Z,83.28
2019-01-16T03:11:05.406Z,83.70
2019-01-16T03:12:05.468Z,83.49
2019-01-16T03:13:05.409Z,83.70
2019-01-16T03:14:05.369Z,83.59
2019-01-16T03:15:05.364Z,83.07
2019-01-16T03:16:05.350Z,83.39
2019-01-16T03:17:05.366Z,83.28
2019-01-16T03:18:05.349Z,83.80
2019-01-16T03:19:05.327Z,83.70
2019-01-16T03:20:05.305Z,83.70
2019-01-16T03:21:05.339Z,83.59
2019-01-16T03:22:05.289Z,84.45
2019-01-16T03:23:05.308Z,84.25
2019-01-16T03:24:05.259Z,84.52
2019-01-16T03:25:05.252Z,84.21
2019-01-16T03:26:05.275Z,84.11
2019-01-16T03:27:05.225Z,84.15
2019-01-16T03:28:05.229Z,84.42
2019-01-16T03:29:05.226Z,84.63
2019-01-16T03:30:05.194Z,84.56
2019-01-16T03:31:05.210Z,84.52
2019-01-16T03:32:05.168Z,84.11
2019-01-16T03:33:05.161Z,85.18
2019-01-16T03:34:05.168Z,84.94
2019-01-16T03:35:05.184Z,84.52
2019-01-16T03:36:05.160Z,84.83
2019-01-16T03:37:05.138Z,85.18
2019-01-16T03:38:05.159Z,84.45
2019-01-16T03:39:05.119Z,84.36
2019-01-16T03:40:05.099Z,85.18
2019-01-16T03:41:05.097Z,85.18
2019-01-16T03:42:05.063Z,85.08
2019-01-16T03:43:05.047Z,85.18
2019-01-16T03:44:05.066Z,85.49
2019-01-16T03:45:05.026Z,85.08
2019-01-16T03:46:05.022Z,85.18
2019-01-16T03:47:05.013Z,85.28
2019-01-16T03:48:04.992Z,84.87
2019-01-16T03:49:12.893Z,85.18
2019-01-16T03:50:05.997Z,85.70
2019-01-16T03:51:04.981Z,85.49
2019-01-16T03:52:04.977Z,85.91
2019-01-16T03:53:04.938Z,86.01
2019-01-16T03:54:04.972Z,85.80
2019-01-16T03:55:04.928Z,86.15
2019-01-16T03:56:04.928Z,85.74
2019-01-16T03:57:04.905Z,85.80
2019-01-16T03:58:04.907Z,86.21
2019-01-16T03:59:04.868Z,85.91
2019-01-16T04:00:04.890Z,85.70
2019-01-16T04:01:04.852Z,86.32
2019-01-16T04:02:04.843Z,86.15
2019-01-16T04:03:04.837Z,86.32
2019-01-16T04:04:04.845Z,87.18
2019-01-16T04:05:04.841Z,87.18
2019-01-16T04:06:04.812Z,87.29
2019-01-16T04:07:04.799Z,87.49
2019-01-16T04:08:04.773Z,88.01
2019-01-16T04:09:04.778Z,87.70
2019-01-16T04:10:04.787Z,88.22
2019-01-16T04:11:04.736Z,88.43
2019-01-16T04:12:04.724Z,88.67
2019-01-16T04:13:04.744Z,88.32
2019-01-16T04:14:04.708Z,88.32
2019-01-16T04:15:04.733Z,88.84
2019-01-16T04:16:04.683Z,89.25
2019-01-16T04:17:04.677Z,88.67
2019-01-16T04:18:04.669Z,88.64
2019-01-16T04:19:04.648Z,88.53
2019-01-16T04:20:04.667Z,89.25
2019-01-16T04:21:04.637Z,89.19
2019-01-16T04:22:04.648Z,88.98
2019-01-16T04:23:04.606Z,89.40
2019-01-16T04:24:04.621Z,89.40
2019-01-16T04:25:04.604Z,89.71
2019-01-16T04:26:04.614Z,89.40
2019-01-16T04:27:04.592Z,89.40
2019-01-16T04:28:04.548Z,89.29
2019-01-16T04:29:04.545Z,89.71
2019-01-16T04:30:04.532Z,89.61
2019-01-16T04:31:04.595Z,89.40
2019-01-16T04:32:04.524Z,89.50
2019-01-16T04:33:04.525Z,90.12
2019-01-16T04:34:04.483Z,90.95
2019-01-16T04:35:04.537Z,90.64
2019-01-16T04:36:04.492Z,90.64
2019-01-16T04:37:04.452Z,90.44
2019-01-16T04:38:04.462Z,90.12
2019-01-16T04:39:04.433Z,89.96
2019-01-16T04:40:04.463Z,89.96
2019-01-16T04:41:04.406Z,90.44
2019-01-16T04:42:04.428Z,91.09
2019-01-16T04:43:04.389Z,90.33
2019-01-16T04:44:04.382Z,90.84
2019-01-16T04:45:04.397Z,90.74
2019-01-16T04:46:04.413Z,90.95
2019-01-16T04:47:04.368Z,90.33
2019-01-16T04:48:04.346Z,90.23
2019-01-16T04:49:04.321Z,90.23
2019-01-16T04:50:04.339Z,90.44
2019-01-16T04:51:04.300Z,90.23
2019-01-16T04:52:04.303Z,90.44
2019-01-16T04:53:04.294Z,90.23
2019-01-16T04:54:04.266Z,90.12
2019-01-16T04:55:04.257Z,90.02
2019-01-16T04:56:04.279Z,90.44
2019-01-16T04:57:04.254Z,90.33
2019-01-16T04:58:04.231Z,90.64
2019-01-16T04:59:04.221Z,90.33
2019-01-16T05:00:04.222Z,89.92
2019-01-16T05:01:04.199Z,90.33
2019-01-16T05:02:04.208Z,90.23
2019-01-16T05:03:04.205Z,90.33
2019-01-16T05:04:04.150Z,90.74
2019-01-16T05:05:04.138Z,91.05
2019-01-16T05:06:04.162Z,91.05
2019-01-16T05:07:04.152Z,91.36
2019-01-16T05:08:04.131Z,91.36
2019-01-16T05:09:04.151Z,90.64
2019-01-16T05:10:04.110Z,90.64
2019-01-16T05:11:04.099Z,91.16
2019-01-16T05:12:04.066Z,90.84
2019-01-16T05:13:04.053Z,90.95
2019-01-16T05:14:04.041Z,90.44
2019-01-16T05:15:04.067Z,90.64
2019-01-16T05:16:04.017Z,90.74
2019-01-16T05:17:04.005Z,90.95
2019-01-16T05:18:04.011Z,91.05
2019-01-16T05:19:04.010Z,90.84
2019-01-16T05:20:03.994Z,90.95
2019-01-16T05:21:03.983Z,90.33
2019-01-16T05:22:03.952Z,90.33
2019-01-16T05:23:03.956Z,90.12
2019-01-16T05:24:03.942Z,90.84
2019-01-16T05:25:03.956Z,90.33
2019-01-16T05:26:03.908Z,90.33
2019-01-16T05:27:03.896Z,90.95
2019-01-16T05:28:03.903Z,90.74
2019-01-16T05:29:03.892Z,90.33
2019-01-16T05:30:03.885Z,90.95
2019-01-16T05:31:03.859Z,90.33
2019-01-16T05:32:03.842Z,90.44
2019-01-16T05:33:03.834Z,90.53
2019-01-16T05:34:03.843Z,90.74
2019-01-16T05:35:03.832Z,89.81
2019-01-16T05:36:03.798Z,89.40
2019-01-16T05:37:03.786Z,89.29
2019-01-16T05:38:03.792Z,89.71
2019-01-16T05:39:03.763Z,89.29
2019-01-16T05:40:03.810Z,90.02
2019-01-16T05:41:03.752Z,89.50
2019-01-16T05:42:03.731Z,89.81
2019-01-16T05:43:03.718Z,89.61
2019-01-16T05:44:03.749Z,89.61
2019-01-16T05:45:03.701Z,89.40
2019-01-16T05:46:03.695Z,89.36
2019-01-16T05:47:03.680Z,89.40
2019-01-16T05:48:03.690Z,89.71
2019-01-16T05:49:03.697Z,89.40
2019-01-16T05:50:03.640Z,89.50
2019-01-16T05:51:03.636Z,89.61
2019-01-16T05:52:03.628Z,89.81
2019-01-16T05:53:03.632Z,89.81
2019-01-16T05:54:03.638Z,90.12
2019-01-16T05:55:03.591Z,89.81
2019-01-16T05:56:03.580Z,89.40
2019-01-16T05:57:03.572Z,89.19
2019-01-16T05:58:03.557Z,89.36
2019-01-16T05:59:03.591Z,89.29
2019-01-16T06:00:03.541Z,89.61
2019-01-16T06:01:03.549Z,89.29
2019-01-16T06:02:03.512Z,89.50
2019-01-16T06:03:03.509Z,90.02
2019-01-16T06:04:03.512Z,89.25
2019-01-16T06:05:03.505Z,89.50
2019-01-16T06:06:03.464Z,88.84
2019-01-16T06:07:03.478Z,89.25
2019-01-16T06:08:03.492Z,88.94
2019-01-16T06:09:03.436Z,89.29
2019-01-16T06:10:03.441Z,89.09
2019-01-16T06:11:03.408Z,89.09
2019-01-16T06:12:03.438Z,89.25
2019-01-16T06:13:03.388Z,88.94
2019-01-16T06:14:03.409Z,88.67
2019-01-16T06:15:03.398Z,88.94
2019-01-16T06:16:03.371Z,88.74
2019-01-16T06:17:03.397Z,89.46
2019-01-16T06:18:03.337Z,88.94
2019-01-16T06:19:03.321Z,88.78
2019-01-16T06:20:03.336Z,88.43
2019-01-16T06:21:03.300Z,88.53
2019-01-16T06:22:03.322Z,89.15
2019-01-16T06:23:03.282Z,89.46
2019-01-16T06:24:03.325Z,88.94
2019-01-16T06:25:03.258Z,89.09
2019-01-16T06:26:03.249Z,89.36
2019-01-16T06:27:03.239Z,88.53
2019-01-16T06:28:03.270Z,88.84
2019-01-16T06:29:03.211Z,88.84
2019-01-16T06:30:03.210Z,88.74
2019-01-16T06:31:03.250Z,89.56
2019-01-16T06:32:03.182Z,89.67
2019-01-16T06:33:03.171Z,89.46
2019-01-16T06:34:03.184Z,89.25
2019-01-16T06:35:03.144Z,89.04
2019-01-16T06:36:03.169Z,89.56
2019-01-16T06:37:03.157Z,88.94
2019-01-16T06:38:03.116Z,88.53
2019-01-16T06:39:03.151Z,88.84
2019-01-16T06:40:03.119Z,89.46
2019-01-16T06:41:03.102Z,88.53
2019-01-16T06:42:03.070Z,88.94
2019-01-16T06:43:03.141Z,89.15
2019-01-16T06:44:03.065Z,88.74
2019-01-16T06:45:03.052Z,88.43
2019-01-16T06:46:03.026Z,88.43
2019-01-16T06:47:03.063Z,88.12
2019-01-16T06:48:03.003Z,88.01
2019-01-16T06:49:03.016Z,88.43
2019-01-16T06:50:03.012Z,87.81
2019-01-16T06:51:03.007Z,88.43
2019-01-16T06:52:02.968Z,87.97
2019-01-16T06:53:02.947Z,87.35
2019-01-16T06:54:02.957Z,87.66
2019-01-16T06:55:02.979Z,87.97
2019-01-16T06:56:02.926Z,88.01
2019-01-16T06:57:02.929Z,88.01
2019-01-16T06:58:02.890Z,88.43
2019-01-16T06:59:02.903Z,88.49
2019-01-16T07:00:02.896Z,88.70
2019-01-16T07:01:02.878Z,88.12
2019-01-16T07:02:02.887Z,87.70
2019-01-16T07:03:02.835Z,87.70
2019-01-16T07:04:02.868Z,88.01
2019-01-16T07:05:02.819Z,88.32
2019-01-16T07:06:02.813Z,88.53
2019-01-16T07:07:02.796Z,87.60
2019-01-16T07:08:02.783Z,87.87
2019-01-16T07:09:02.797Z,88.12
2019-01-16T07:10:02.760Z,88.64
2019-01-16T07:11:02.779Z,88.01
2019-01-16T07:12:02.748Z,88.53
2019-01-16T07:13:02.730Z,88.12
2019-01-16T07:14:02.722Z,88.22
2019-01-16T07:15:02.741Z,88.12
2019-01-16T07:16:02.694Z,88.84
2019-01-16T07:17:02.680Z,88.94
2019-01-16T07:18:02.679Z,88.94
2019-01-16T07:19:02.692Z,89.36
2019-01-16T07:20:09.404Z,89.67
2019-01-16T07:21:03.652Z,89.15
2019-01-16T07:22:02.652Z,89.56
2019-01-16T07:23:02.618Z,89.77
2019-01-16T07:24:02.606Z,89.67
2019-01-16T07:25:02.604Z,89.04
2019-01-16T07:26:02.618Z,89.25
2019-01-16T07:27:02.573Z,89.92
2019-01-16T07:28:02.588Z,90.29
2019-01-16T07:29:02.549Z,90.70
2019-01-16T07:30:02.561Z,89.46
2019-01-16T07:31:02.533Z,89.25
2019-01-16T07:32:02.542Z,89.56
2019-01-16T07:33:02.549Z,89.56
2019-01-16T07:34:02.530Z,89.36
2019-01-16T07:35:02.484Z,89.67
2019-01-16T07:36:02.469Z,89.46
2019-01-16T07:37:02.473Z,89.36
2019-01-16T07:38:02.488Z,89.67
2019-01-16T07:39:02.442Z,89.25
2019-01-16T07:40:02.428Z,89.67
2019-01-16T07:41:02.443Z,89.77
2019-01-16T07:42:02.435Z,90.19
2019-01-16T07:43:02.422Z,90.19
2019-01-16T07:44:02.417Z,90.70
2019-01-16T07:45:02.372Z,90.70
2019-01-16T07:46:02.359Z,90.70
2019-01-16T07:47:02.367Z,90.60
2019-01-16T07:48:02.358Z,90.19
2019-01-16T07:49:02.357Z,90.60
2019-01-16T07:50:02.317Z,90.70
2019-01-16T07:51:02.308Z,90.29
2019-01-16T07:52:02.312Z,90.50
2019-01-16T07:53:02.308Z,90.19
2019-01-16T07:54:02.294Z,90.60
2019-01-16T07:55:02.289Z,90.39
2019-01-16T07:56:02.252Z,90.60
2019-01-16T07:57:02.256Z,90.39
2019-01-16T07:58:02.227Z,90.60
2019-01-16T07:59:02.217Z,90.39
2019-01-16T08:00:02.247Z,90.39
2019-01-16T08:01:02.194Z,90.35
2019-01-16T08:02:02.247Z,90.56
2019-01-16T08:03:02.175Z,90.04
2019-01-16T08:04:02.184Z,90.35
2019-01-16T08:05:02.171Z,90.45
2019-01-16T08:06:02.158Z,90.14
2019-01-16T08:07:02.128Z,90.35
2019-01-16T08:08:02.122Z,90.56
2019-01-16T08:09:02.110Z,89.83
2019-01-16T08:10:02.126Z,90.66
2019-01-16T08:11:02.118Z,90.87
2019-01-16T08:12:02.086Z,90.25
2019-01-16T08:13:02.062Z,91.07
2019-01-16T08:14:02.052Z,91.28
2019-01-16T08:15:02.070Z,91.28
2019-01-16T08:16:02.052Z,90.97
2019-01-16T08:17:02.048Z,90.56
2019-01-16T08:18:02.031Z,90.25
2019-01-16T08:19:02.037Z,90.97
2019-01-16T08:20:02.015Z,90.45
2019-01-16T08:21:01.974Z,90.56
2019-01-16T08:22:01.963Z,90.66
2019-01-16T08:23:01.983Z,91.01
2019-01-16T08:24:01.972Z,90.87
2019-01-16T08:25:01.928Z,91.32
2019-01-16T08:26:01.920Z,91.17
2019-01-16T08:27:01.920Z,91.17
2019-01-16T08:28:01.926Z,90.80
2019-01-16T08:29:01.888Z,91.11
2019-01-16T08:30:01.875Z,91.01
2019-01-16T08:31:01.860Z,91.74
2019-01-16T08:32:01.852Z,91.49
2019-01-16T08:33:01.879Z,91.63
2019-01-16T08:34:01.844Z,91.42
2019-01-16T08:35:01.833Z,91.22
2019-01-16T08:36:01.807Z,91.01
2019-01-16T08:37:01.796Z,91.84
2019-01-16T08:38:01.786Z,91.74
2019-01-16T08:39:01.817Z,91.22
2019-01-16T08:40:01.777Z,91.38
2019-01-16T08:41:01.773Z,91.32
2019-01-16T08:42:01.746Z,91.22
2019-01-16T08:43:01.739Z,91.63
2019-01-16T08:44:01.748Z,91.22
2019-01-16T08:45:01.746Z,91.42
2019-01-16T08:46:01.700Z,91.42
2019-01-16T08:47:01.704Z,91.94
2019-01-16T08:48:01.676Z,91.01
2019-01-16T08:49:01.684Z,91.01
2019-01-16T08:50:01.690Z,91.22
2019-01-16T08:51:01.643Z,91.38
2019-01-16T08:52:01.642Z,91.90
2019-01-16T08:53:01.645Z,90.97
2019-01-16T08:54:01.612Z,91.28
2019-01-16T08:55:01.621Z,91.28
2019-01-16T08:56:01.632Z,90.97
2019-01-16T08:57:01.580Z,90.35
2019-01-16T08:58:01.570Z,90.66
2019-01-16T08:59:01.554Z,90.66
2019-01-16T09:00:01.549Z,90.87
2019-01-16T09:01:01.567Z,89.11
2019-01-16T09:02:01.520Z,89.62
2019-01-16T09:03:01.531Z,90.62
2019-01-16T09:04:01.510Z,90.56
2019-01-16T09:05:01.488Z,90.56
2019-01-16T09:06:01.477Z,90.66
2019-01-16T09:07:01.471Z,90.56
2019-01-16T09:08:01.482Z,90.45
2019-01-16T09:09:01.482Z,90.66
2019-01-16T09:10:01.448Z,90.66
2019-01-16T09:11:01.453Z,90.45
2019-01-16T09:12:01.410Z,89.62
2019-01-16T09:13:01.401Z,89.62
2019-01-16T09:14:01.394Z,89.62
2019-01-16T09:15:01.388Z,89.32
2019-01-16T09:16:01.397Z,89.52
2019-01-16T09:17:01.356Z,89.52
2019-01-16T09:18:01.344Z,89.32
2019-01-16T09:19:01.334Z,88.80
2019-01-16T09:20:01.339Z,89.01
2019-01-16T09:21:01.338Z,88.80
2019-01-16T09:22:01.341Z,89.17
2019-01-16T09:23:01.288Z,89.59
2019-01-16T09:24:01.280Z,89.52
2019-01-16T09:25:01.270Z,89.22
2019-01-16T09:26:01.259Z,89.42
2019-01-16T09:27:01.269Z,89.22
2019-01-16T09:28:01.235Z,88.96
2019-01-16T09:29:01.235Z,89.52
2019-01-16T09:30:01.251Z,89.07
2019-01-16T09:31:01.225Z,89.07
2019-01-16T09:32:01.212Z,88.76
2019-01-16T09:33:01.198Z,89.17
2019-01-16T09:34:01.168Z,88.55
2019-01-16T09:35:01.312Z,88.45
2019-01-16T09:36:01.145Z,89.07
2019-01-16T09:37:01.177Z,88.45
2019-01-16T09:38:01.134Z,88.76
2019-01-16T09:39:01.142Z,88.55
2019-01-16T09:40:09.145Z,88.34
2019-01-16T09:41:01.086Z,88.24
2019-01-16T09:42:01.098Z,88.34
2019-01-16T09:43:01.098Z,87.10
2019-01-16T09:44:01.064Z,87.37
2019-01-16T09:45:01.094Z,87.52
2019-01-16T09:46:01.034Z,87.52
2019-01-16T09:47:01.023Z,87.37
2019-01-16T09:48:01.011Z,87.79
2019-01-16T09:49:01.054Z,87.41
2019-01-16T09:50:01.027Z,88.20
2019-01-16T09:51:00.976Z,87.89
2019-01-16T09:52:01.001Z,88.31
2019-01-16T09:53:00.976Z,87.48
2019-01-16T09:54:00.963Z,87.21
2019-01-16T09:55:00.959Z,87.99
2019-01-16T09:56:00.949Z,87.07
2019-01-16T09:57:00.912Z,87.37
2019-01-16T09:58:00.900Z,87.07
2019-01-16T09:59:00.940Z,87.17
2019-01-16T10:00:00.876Z,86.24
2019-01-16T10:01:00.872Z,86.76
2019-01-16T10:02:00.883Z,86.86
2019-01-16T10:03:00.845Z,86.76
2019-01-16T10:04:00.836Z,87.07
2019-01-16T10:05:00.843Z,86.65
2019-01-16T10:06:00.821Z,86.65
2019-01-16T10:07:00.875Z,86.76
2019-01-16T10:08:00.812Z,86.86
2019-01-16T10:09:00.808Z,86.86
2019-01-16T10:10:00.769Z,86.03
2019-01-16T10:11:00.782Z,87.02
2019-01-16T10:12:00.747Z,85.37
2019-01-16T10:13:00.774Z,85.89
2019-01-16T10:14:00.722Z,85.37
2019-01-16T10:15:00.746Z,85.89
2019-01-16T10:16:00.727Z,86.03
2019-01-16T10:17:00.713Z,86.03
2019-01-16T10:18:00.682Z,85.62
2019-01-16T10:19:00.684Z,85.58
2019-01-16T10:20:00.657Z,85.62
2019-01-16T10:21:00.660Z,85.10
2019-01-16T10:22:00.646Z,85.37
2019-01-16T10:23:00.653Z,85.68
2019-01-16T10:24:00.615Z,85.68
2019-01-16T10:25:00.602Z,85.89
2019-01-16T10:26:00.593Z,85.58
2019-01-16T10:27:00.592Z,85.47
2019-01-16T10:28:00.737Z,85.10
2019-01-16T10:29:00.558Z,84.86
2019-01-16T10:30:00.550Z,85.17
2019-01-16T10:31:00.546Z,85.17
2019-01-16T10:32:00.527Z,85.06
2019-01-16T10:33:00.531Z,84.86
2019-01-16T10:34:00.542Z,85.06
2019-01-16T10:35:00.753Z,85.47
2019-01-16T10:36:00.506Z,85.00
2019-01-16T10:37:00.491Z,85.99
2019-01-16T10:38:00.458Z,84.59
2019-01-16T10:39:00.499Z,85.17
2019-01-16T10:40:00.437Z,85.06
2019-01-16T10:41:00.432Z,84.59
2019-01-16T10:42:00.418Z,85.21
2019-01-16T10:43:00.404Z,84.48
2019-01-16T10:44:00.428Z,85.31
2019-01-16T10:45:00.388Z,85.21
2019-01-16T10:46:00.373Z,85.24
2019-01-16T10:47:00.364Z,85.14
2019-01-16T10:48:00.379Z,85.93
2019-01-16T10:49:00.338Z,85.21
2019-01-16T10:50:00.327Z,85.21
2019-01-16T10:51:03.261Z,85.62
2019-01-16T10:52:00.314Z,85.00
2019-01-16T10:53:00.318Z,84.59
2019-01-16T10:54:00.288Z,85.00
2019-01-16T10:55:00.299Z,85.10
2019-01-16T10:56:00.263Z,85.10
2019-01-16T10:57:00.320Z,85.21
2019-01-16T10:58:00.261Z,84.69
2019-01-16T10:59:00.251Z,84.79
2019-01-16T11:00:00.254Z,84.69
2019-01-16T11:01:00.203Z,84.86
2019-01-16T11:02:00.215Z,83.41
2019-01-16T11:03:00.190Z,84.13
2019-01-16T11:04:00.171Z,83.41
2019-01-16T11:05:00.263Z,83.72
2019-01-16T11:06:00.165Z,84.65
2019-01-16T11:07:00.173Z,83.72
2019-01-16T11:08:00.138Z,83.72
2019-01-16T11:09:00.115Z,83.65
2019-01-16T11:10:00.168Z,83.72
2019-01-16T11:11:00.133Z,83.65
2019-01-16T11:12:00.084Z,83.31
2019-01-16T11:13:00.108Z,83.45
2019-01-16T11:14:00.059Z,83.51
2019-01-16T11:15:00.146Z,83.72
2019-01-16T11:16:00.040Z,83.20
2019-01-16T11:17:00.041Z,82.89
2019-01-16T11:18:00.056Z,82.38
2019-01-16T11:19:00.008Z,82.69
2019-01-16T11:19:59.999Z,83.83
2019-01-16T11:20:59.987Z,83.31
2019-01-16T11:21:59.980Z,84.03
2019-01-16T11:23:00.010Z,83.72
2019-01-16T11:23:59.949Z,83.41
2019-01-16T11:24:59.943Z,83.45
2019-01-16T11:25:59.929Z,83.31
2019-01-16T11:26:59.934Z,82.69
2019-01-16T11:27:59.970Z,83.41
2019-01-16T11:28:59.909Z,82.69
2019-01-16T11:29:59.886Z,82.79
2019-01-16T11:30:59.885Z,83.34
2019-01-16T11:31:59.913Z,83.62
2019-01-16T11:32:59.854Z,83.25
2019-01-16T11:33:59.857Z,82.89
2019-01-16T11:34:59.852Z,82.48
2019-01-16T11:35:59.816Z,81.90
2019-01-16T11:36:59.866Z,83.34
2019-01-16T11:37:59.824Z,83.34
2019-01-16T11:38:59.813Z,83.34
2019-01-16T11:40:04.649Z,83.65
2019-01-16T11:41:00.804Z,83.70
2019-01-16T11:41:59.752Z,83.28
2019-01-16T11:42:59.753Z,83.25
2019-01-16T11:43:59.762Z,82.97
2019-01-16T11:44:59.718Z,82.66
2019-01-16T11:45:59.709Z,82.25
2019-01-16T11:46:59.735Z,82.56
2019-01-16T11:47:59.685Z,83.07
2019-01-16T11:48:59.675Z,83.59
2019-01-16T11:49:59.688Z,82.76
2019-01-16T11:50:59.687Z,83.18
2019-01-16T11:51:59.647Z,82.60
2019-01-16T11:52:59.649Z,82.15
2019-01-16T11:53:59.678Z,83.39
2019-01-16T11:54:59.613Z,83.39
2019-01-16T11:55:59.598Z,82.87
2019-01-16T11:56:59.588Z,83.18
2019-01-16T11:57:59.584Z,83.39
2019-01-16T11:58:59.592Z,81.94
2019-01-16T11:59:59.551Z,82.04
2019-01-16T12:00:59.568Z,83.07
2019-01-16T12:01:59.548Z,82.35
2019-01-16T12:02:59.536Z,81.11
2019-01-16T12:03:59.534Z,81.52
2019-01-16T12:04:59.497Z,81.84
2019-01-16T12:05:59.517Z,81.73
2019-01-16T12:06:59.488Z,81.63
2019-01-16T12:07:59.489Z,81.21
2019-01-16T12:08:59.464Z,81.42
2019-01-16T12:09:59.485Z,81.21
2019-01-16T12:10:59.431Z,81.52
2019-01-16T12:11:59.446Z,81.01
2019-01-16T12:12:59.413Z,80.39
2019-01-16T12:13:59.432Z,81.32
2019-01-16T12:14:59.400Z,80.70
2019-01-16T12:15:59.402Z,80.63
2019-01-16T12:16:59.368Z,80.11
2019-01-16T12:17:59.357Z,80.49
2019-01-16T12:18:59.377Z,80.70
2019-01-16T12:19:59.351Z,80.80
2019-01-16T12:20:59.337Z,81.01
2019-01-16T12:21:59.312Z,80.18
2019-01-16T12:22:59.298Z,80.08
2019-01-16T12:23:59.299Z,80.46
2019-01-16T12:24:59.298Z,80.29
2019-01-16T12:25:59.269Z,80.39
2019-01-16T12:26:59.271Z,79.97
2019-01-16T12:27:59.244Z,79.46
2019-01-16T12:28:59.265Z,80.08
2019-01-16T12:29:59.224Z,79.66
2019-01-16T12:30:59.214Z,80.15
2019-01-16T12:31:59.211Z,80.15
2019-01-16T12:32:59.214Z,79.63
2019-01-16T12:33:59.178Z,79.32
2019-01-16T12:34:59.227Z,79.94
2019-01-16T12:35:59.158Z,78.59
2019-01-16T12:36:59.151Z,78.59
2019-01-16T12:37:59.142Z,79.52
2019-01-16T12:38:59.125Z,78.80
2019-01-16T12:39:59.137Z,79.25
2019-01-16T12:40:59.113Z,79.36
2019-01-16T12:41:59.652Z,78.84
2019-01-16T12:42:59.081Z,79.05
2019-01-16T12:43:59.086Z,78.84
2019-01-16T12:44:59.084Z,79.22
2019-01-16T12:45:59.045Z,79.87
2019-01-16T12:46:59.039Z,79.36
2019-01-16T12:47:59.063Z,78.84
2019-01-16T12:48:59.011Z,77.81
2019-01-16T12:49:59.027Z,77.81
2019-01-16T12:50:58.990Z,78.84
2019-01-16T12:51:59.027Z,79.25